Time;durP1;ratioP1;P1;durP2;ratioP2;P2;SDS_P1;SDS_P2;PMS_P1;PMS_P2;Temp;Humidity;BMP_temperature;BMP_pressure;BME280_temperature;BME280_humidity;BME280_pressure;Samples;Min_cycle;Max_cycle;Signal;HPM_P1;HPM_P2
2023/07/10 00:00:25;;;;;;;5.00;3.47;;;;;;;17.82;57.58;95288.94;5113123;28;20035;-72
2023/07/10 00:02:51;;;;;;;5.25;2.90;;;;;;;17.74;57.72;95281.81;5110704;28;20040;-73
2023/07/10 00:05:18;;;;;;;3.88;3.00;;;;;;;17.86;57.54;95288.47;5131750;27;20041;-74
2023/07/10 00:07:43;;;;;;;4.43;3.20;;;;;;;17.90;57.79;95288.13;5085734;28;20042;-72
2023/07/10 00:10:13;;;;;;;3.40;3.08;;;;;;;17.86;57.99;95287.66;5096552;28;20027;-73
2023/07/10 00:12:39;;;;;;;3.60;2.97;;;;;;;17.83;57.87;95290.59;5121181;27;20027;-73
2023/07/10 00:15:24;;;;;;;3.60;3.00;;;;;;;17.82;57.70;95281.88;5131993;27;20488;-73
2023/07/10 00:17:51;;;;;;;5.45;3.33;;;;;;;17.78;57.57;95272.66;5117549;27;20055;-73
2023/07/10 00:20:21;;;;;;;3.63;2.88;;;;;;;17.78;57.88;95283.19;5097398;28;20055;-73
2023/07/10 00:22:46;;;;;;;3.65;2.95;;;;;;;17.75;57.77;95261.63;5113405;28;20119;-73
2023/07/10 00:25:15;;;;;;;4.15;3.17;;;;;;;17.79;57.66;95255.91;5079221;28;20122;-73
2023/07/10 00:27:41;;;;;;;4.47;3.40;;;;;;;17.71;57.76;95271.63;5096018;28;20047;-73
2023/07/10 00:30:17;;;;;;;3.97;3.15;;;;;;;17.67;58.28;95269.50;5110991;28;20031;-73
2023/07/10 00:32:43;;;;;;;4.00;3.20;;;;;;;17.65;58.29;95280.97;5090849;28;20035;-72
2023/07/10 00:35:09;;;;;;;4.22;3.10;;;;;;;17.66;57.92;95279.16;5073702;28;20028;-73
2023/07/10 00:37:34;;;;;;;4.53;3.13;;;;;;;17.55;58.32;95282.91;5081543;28;20039;-73
2023/07/10 00:40:00;;;;;;;4.25;3.33;;;;;;;17.57;58.38;95290.63;5090475;28;20027;-72
2023/07/10 00:42:26;;;;;;;4.75;3.35;;;;;;;17.40;58.68;95271.34;5092131;28;20035;-72
2023/07/10 00:44:53;;;;;;;3.67;2.90;;;;;;;17.57;59.08;95290.63;5091279;28;20486;-73
2023/07/10 00:47:25;;;;;;;3.72;3.30;;;;;;;17.42;58.96;95288.59;5112207;27;20023;-72
2023/07/10 00:50:13;;;;;;;4.55;3.05;;;;;;;17.33;59.48;95286.91;5133206;27;20115;-72
2023/07/10 00:52:41;;;;;;;4.22;3.30;;;;;;;17.25;59.71;95286.88;5133509;27;20035;-72
2023/07/10 00:55:34;;;;;;;3.90;2.92;;;;;;;17.24;59.72;95293.09;5115968;27;20039;-73
2023/07/10 00:58:15;;;;;;;5.85;3.30;;;;;;;17.20;60.13;95294.41;5084318;28;20101;-72
2023/07/10 01:01:01;;;;;;;4.88;3.28;;;;;;;17.25;60.86;95296.56;5082077;27;20122;-72
2023/07/10 01:03:26;;;;;;;4.28;3.58;;;;;;;16.58;63.09;95288.41;5114687;27;20031;-72
2023/07/10 01:05:51;;;;;;;5.00;3.45;;;;;;;16.72;62.75;95295.72;5129211;27;20511;-72
2023/07/10 01:08:17;;;;;;;4.68;3.50;;;;;;;16.72;62.88;95293.09;5134151;27;20409;-72
2023/07/10 01:10:42;;;;;;;4.07;3.45;;;;;;;16.54;63.44;95283.44;5115730;27;20076;-72
2023/07/10 01:13:08;;;;;;;4.78;3.30;;;;;;;16.54;62.16;95288.69;5133906;27;20075;-72
2023/07/10 01:15:33;;;;;;;4.88;3.25;;;;;;;16.49;62.34;95290.94;5112758;27;20035;-72
2023/07/10 01:17:58;;;;;;;5.78;3.40;;;;;;;16.37;63.00;95286.91;5092467;28;20036;-73
2023/07/10 01:20:40;;;;;;;4.70;3.22;;;;;;;16.54;63.17;95278.19;5092940;28;20436;-72
2023/07/10 01:23:05;;;;;;;4.20;3.80;;;;;;;16.42;62.56;95274.16;5106004;27;20114;-72
2023/07/10 01:25:39;;;;;;;3.97;3.28;;;;;;;16.45;62.27;95279.09;5115336;27;20060;-72
2023/07/10 01:28:09;;;;;;;4.65;3.20;;;;;;;16.45;62.12;95278.28;5132559;27;20055;-73
2023/07/10 01:30:35;;;;;;;4.43;2.93;;;;;;;16.46;62.29;95285.97;5099795;27;20024;-73
2023/07/10 01:33:01;;;;;;;4.25;3.40;;;;;;;16.37;62.47;95273.78;5081167;28;20033;-72
2023/07/10 01:35:27;;;;;;;7.45;3.50;;;;;;;16.38;62.62;95283.31;5111848;28;20035;-73
2023/07/10 01:37:53;;;;;;;3.67;3.08;;;;;;;16.43;62.25;95286.28;5094872;28;20040;-72
2023/07/10 01:40:22;;;;;;;4.03;3.30;;;;;;;16.48;62.21;95284.03;5116563;27;20052;-73
2023/07/10 01:42:47;;;;;;;5.00;3.10;;;;;;;16.50;62.16;95282.09;5115428;27;20114;-72
2023/07/10 01:45:13;;;;;;;3.95;3.20;;;;;;;16.45;62.20;95284.34;5131179;27;20038;-72
2023/07/10 01:47:38;;;;;;;4.18;3.00;;;;;;;16.45;62.37;95286.16;5075188;28;20028;-73
2023/07/10 01:50:04;;;;;;;4.75;3.20;;;;;;;16.31;62.44;95269.16;5093273;28;20042;-72
2023/07/10 01:52:29;;;;;;;4.90;3.40;;;;;;;16.33;62.35;95275.09;5092546;28;20405;-73
2023/07/10 01:54:55;;;;;;;4.10;3.50;;;;;;;16.44;63.18;95284.53;5118234;27;20027;-72
2023/07/10 01:57:23;;;;;;;4.75;4.03;;;;;;;16.24;64.08;95283.81;5115410;27;20043;-72
2023/07/10 01:59:52;;;;;;;4.43;3.92;;;;;;;15.91;66.34;95290.56;5094556;28;20015;-72
2023/07/10 02:02:17;;;;;;;5.38;4.15;;;;;;;16.03;65.23;95290.19;5127389;27;20039;-72
2023/07/10 02:04:43;;;;;;;7.38;4.20;;;;;;;15.91;65.62;95277.44;5097336;27;20031;-73
2023/07/10 02:07:08;;;;;;;6.15;4.18;;;;;;;15.89;65.62;95280.25;5112683;27;20038;-72
2023/07/10 02:09:34;;;;;;;5.22;3.83;;;;;;;15.94;65.89;95298.97;5129880;27;20023;-72
2023/07/10 02:11:59;;;;;;;4.57;4.07;;;;;;;15.83;66.26;95305.22;5112689;27;20039;-72
2023/07/10 02:14:25;;;;;;;5.43;4.20;;;;;;;15.86;66.32;95285.78;5131190;27;20026;-74
2023/07/10 02:16:50;;;;;;;5.18;4.68;;;;;;;15.69;66.66;95299.69;5114350;27;20039;-73
2023/07/10 02:19:16;;;;;;;4.90;4.20;;;;;;;15.63;67.05;95285.34;5110944;28;20031;-73
2023/07/10 02:21:42;;;;;;;4.80;4.07;;;;;;;15.68;66.82;95295.34;5110984;28;20024;-72
2023/07/10 02:24:07;;;;;;;4.95;4.20;;;;;;;15.58;66.87;95309.34;5112927;27;20039;-72
2023/07/10 02:26:33;;;;;;;6.00;4.43;;;;;;;15.62;67.24;95302.81;5105724;27;20043;-72
2023/07/10 02:28:58;;;;;;;5.63;4.35;;;;;;;15.41;67.73;95304.88;5131568;27;20041;-72
2023/07/10 02:31:24;;;;;;;5.65;4.32;;;;;;;15.25;68.68;95299.44;5129112;27;20035;-72
2023/07/10 02:33:50;;;;;;;5.22;4.68;;;;;;;15.20;68.94;95311.13;5114104;27;20019;-73
2023/07/10 02:36:15;;;;;;;5.78;4.97;;;;;;;15.19;68.73;95306.06;5096686;27;20065;-72
2023/07/10 02:38:41;;;;;;;5.60;4.95;;;;;;;14.98;69.95;95319.34;5128452;27;20465;-72
2023/07/10 02:41:06;;;;;;;6.45;5.10;;;;;;;15.00;69.81;95325.25;5112225;27;20042;-72
2023/07/10 02:43:31;;;;;;;7.22;5.13;;;;;;;15.13;69.54;95320.53;5132332;27;20019;-72
2023/07/10 02:45:57;;;;;;;7.32;5.63;;;;;;;14.92;69.82;95323.34;5129282;27;20031;-72
2023/07/10 02:48:22;;;;;;;6.50;4.80;;;;;;;14.92;70.06;95314.69;5131066;27;20506;-72
2023/07/10 02:50:48;;;;;;;7.50;5.03;;;;;;;14.88;70.83;95323.78;5111845;27;20413;-72
2023/07/10 02:53:13;;;;;;;7.38;5.10;;;;;;;14.87;70.81;95319.50;5113692;27;20032;-72
2023/07/10 02:55:38;;;;;;;7.15;5.00;;;;;;;14.90;70.40;95316.59;5113738;27;20534;-72
2023/07/10 02:58:05;;;;;;;5.55;4.88;;;;;;;14.98;69.93;95320.16;5130588;27;20035;-72
2023/07/10 03:00:30;;;;;;;7.00;5.68;;;;;;;15.05;69.45;95323.03;5108328;28;20030;-73
2023/07/10 03:02:55;;;;;;;7.40;5.03;;;;;;;14.90;69.70;95322.66;5110166;28;20111;-72
2023/07/10 03:05:24;;;;;;;6.57;4.60;;;;;;;14.90;70.07;95321.81;5110197;28;20052;-72
2023/07/10 03:07:50;;;;;;;5.45;4.43;;;;;;;14.83;69.56;95307.69;5093222;28;20039;-74
2023/07/10 03:10:15;;;;;;;7.15;4.22;;;;;;;14.91;68.60;95321.69;5121892;27;20027;-72
2023/07/10 03:12:41;;;;;;;5.25;4.20;;;;;;;15.05;68.03;95323.03;5095252;28;20028;-72
2023/07/10 03:15:07;;;;;;;5.22;3.75;;;;;;;15.14;68.22;95313.50;5131772;27;20492;-72
2023/07/10 03:17:32;;;;;;;4.35;3.75;;;;;;;15.14;67.95;95327.41;5093464;28;20114;-72
2023/07/10 03:19:58;;;;;;;4.93;3.30;;;;;;;15.19;67.73;95332.22;5076493;28;20020;-72
2023/07/10 03:22:23;;;;;;;4.30;3.42;;;;;;;15.15;67.63;95330.84;5101766;28;20028;-71
2023/07/10 03:24:51;;;;;;;5.22;3.90;;;;;;;15.29;67.80;95338.25;5097849;28;20028;-72
2023/07/10 03:27:17;;;;;;;5.32;4.63;;;;;;;15.30;68.94;95339.91;5085243;28;20055;-72
2023/07/10 03:29:43;;;;;;;5.78;5.18;;;;;;;15.30;69.37;95336.47;5067499;28;20081;-72
2023/07/10 03:32:08;;;;;;;6.50;4.97;;;;;;;15.28;69.54;95323.50;5105189;28;20035;-72
2023/07/10 03:34:34;;;;;;;5.55;4.95;;;;;;;15.27;69.79;95340.19;5099343;28;20024;-72
2023/07/10 03:36:59;;;;;;;5.07;4.50;;;;;;;15.12;70.47;95325.91;5104179;28;20043;-72
2023/07/10 03:39:25;;;;;;;9.23;5.85;;;;;;;15.18;70.19;95330.56;5072614;28;20031;-72
2023/07/10 03:41:50;;;;;;;7.60;4.55;;;;;;;15.10;70.51;95320.84;5091961;28;20073;-72
2023/07/10 03:44:16;;;;;;;5.72;5.18;;;;;;;15.38;70.36;95345.25;5106550;27;20293;-73
2023/07/10 03:46:41;;;;;;;5.85;4.85;;;;;;;15.33;70.42;95339.63;5109887;28;20027;-72
2023/07/10 03:49:06;;;;;;;5.53;5.03;;;;;;;15.48;70.52;95342.59;5108898;28;20081;-71
2023/07/10 03:51:32;;;;;;;6.07;4.72;;;;;;;15.40;70.84;95345.91;5110570;27;20413;-72
2023/07/10 03:53:57;;;;;;;6.25;5.03;;;;;;;15.53;70.35;95350.84;5103338;28;20488;-71
2023/07/10 03:56:22;;;;;;;6.05;5.25;;;;;;;15.65;69.84;95349.66;5110343;28;20204;-71
2023/07/10 03:58:48;;;;;;;7.47;5.43;;;;;;;15.48;70.50;95341.75;5108691;27;20089;-71
2023/07/10 04:01:14;;;;;;;7.07;5.10;;;;;;;15.45;71.36;95355.16;5090542;28;20398;-71
2023/07/10 04:03:39;;;;;;;6.45;5.60;;;;;;;15.42;71.64;95356.25;5105764;28;20160;-72
2023/07/10 04:06:06;;;;;;;7.40;5.57;;;;;;;15.52;70.79;95364.91;5092399;28;20024;-71
2023/07/10 04:08:36;;;;;;;7.18;5.00;;;;;;;15.83;69.83;95349.75;5090802;28;20401;-72
2023/07/10 04:11:22;;;;;;;7.43;5.40;;;;;;;16.27;69.27;95372.69;5074958;28;20031;-70
2023/07/10 04:13:48;;;;;;;6.82;4.80;;;;;;;16.88;67.90;95369.31;5106974;27;20346;-71
2023/07/10 04:16:27;;;;;;;7.50;5.43;;;;;;;18.00;63.79;95365.06;5074764;28;20123;-71
2023/07/10 04:18:53;;;;;;;6.55;4.75;;;;;;;19.13;59.99;95363.53;5093070;28;20035;-72
2023/07/10 04:21:23;;;;;;;5.65;4.95;;;;;;;20.08;56.39;95355.69;5089977;28;20040;-71
2023/07/10 04:23:49;;;;;;;5.83;4.90;;;;;;;21.02;53.90;95368.00;5107172;28;20034;-71
2023/07/10 04:26:26;;;;;;;5.78;4.95;;;;;;;22.02;50.49;95357.06;5088251;28;20313;-72
2023/07/10 04:28:53;;;;;;;6.07;4.50;;;;;;;22.90;49.18;95355.16;5091156;28;20055;-71
2023/07/10 04:31:20;;;;;;;4.90;4.32;;;;;;;23.71;46.87;95352.16;5085312;28;20035;-71
2023/07/10 04:33:45;;;;;;;6.50;4.47;;;;;;;24.25;46.28;95357.50;5069231;28;20088;-71
2023/07/10 04:36:11;;;;;;;5.35;4.43;;;;;;;25.03;42.81;95353.63;5103777;28;20019;-71
2023/07/10 04:38:36;;;;;;;5.93;4.60;;;;;;;25.49;42.20;95352.81;5091006;28;20027;-71
2023/07/10 04:41:03;;;;;;;4.60;4.20;;;;;;;25.60;41.88;95352.19;5089654;28;20047;-73
2023/07/10 04:43:33;;;;;;;5.68;4.18;;;;;;;26.23;41.26;95352.44;5087980;28;20036;-73
2023/07/10 04:46:00;;;;;;;4.85;3.92;;;;;;;25.97;41.58;95341.91;5106591;28;20034;-75
2023/07/10 04:48:25;;;;;;;7.60;4.53;;;;;;;26.17;41.22;95353.28;5106630;28;20485;-73
2023/07/10 04:50:52;;;;;;;6.38;4.25;;;;;;;25.75;41.78;95360.75;5108109;27;20028;-72
2023/07/10 04:53:18;;;;;;;6.97;4.00;;;;;;;25.63;42.99;95355.25;5070364;28;20569;-77
2023/07/10 04:55:43;;;;;;;7.03;4.38;;;;;;;24.93;43.94;95357.50;5091389;28;21070;-78
2023/07/10 04:58:09;;;;;;;4.65;3.75;;;;;;;24.80;45.35;95336.25;5078566;28;20477;-79
2023/07/10 05:00:35;;;;;;;5.55;4.18;;;;;;;24.57;43.63;95347.22;5092016;28;20023;-79
2023/07/10 05:03:01;;;;;;;5.32;3.78;;;;;;;24.72;44.51;95355.03;5088406;28;20807;-80
2023/07/10 05:05:27;;;;;;;6.65;4.30;;;;;;;23.84;44.88;95358.34;5086032;28;20066;-79
2023/07/10 05:07:52;;;;;;;5.57;3.95;;;;;;;23.64;44.83;95346.78;5090957;28;20040;-80
2023/07/10 05:10:18;;;;;;;7.15;4.25;;;;;;;23.30;45.56;95339.63;5113151;27;20034;-80
2023/07/10 05:12:43;;;;;;;6.72;4.30;;;;;;;23.27;46.40;95350.63;5070932;28;20626;-80
2023/07/10 05:15:09;;;;;;;7.50;4.50;;;;;;;23.41;46.97;95341.75;5109718;28;20088;-79
2023/07/10 05:17:34;;;;;;;6.22;4.18;;;;;;;23.74;46.25;95352.59;5108337;28;20055;-79
2023/07/10 05:20:00;;;;;;;6.72;4.18;;;;;;;23.55;46.04;95343.47;5110884;27;20024;-81
2023/07/10 05:22:26;;;;;;;9.68;4.70;;;;;;;23.49;46.88;95332.84;5088755;28;20038;-80
2023/07/10 05:24:51;;;;;;;7.28;4.57;;;;;;;23.81;45.71;95345.47;5087842;28;20035;-80
2023/07/10 05:27:17;;;;;;;8.02;4.90;;;;;;;23.60;46.08;95356.97;5111032;27;20082;-80
2023/07/10 05:29:42;;;;;;;9.35;4.90;;;;;;;23.34;46.28;95340.88;5108418;27;20024;-83
2023/07/10 05:32:08;;;;;;;11.95;5.45;;;;;;;23.26;46.90;95343.66;5075426;27;20061;-80
2023/07/10 05:34:33;;;;;;;12.95;4.93;;;;;;;23.55;47.00;95354.09;5111795;27;20019;-78
2023/07/10 05:36:59;;;;;;;5.22;4.60;;;;;;;23.36;46.18;95354.75;5123515;27;20386;-80
2023/07/10 05:39:24;;;;;;;6.88;4.80;;;;;;;22.75;47.03;95289.03;5093320;28;20028;-79
2023/07/10 05:41:50;;;;;;;8.45;4.68;;;;;;;23.01;47.54;95341.44;5076420;28;20032;-79
2023/07/10 05:44:15;;;;;;;12.18;4.95;;;;;;;23.16;48.25;95350.13;5072739;28;20077;-81
2023/07/10 05:46:41;;;;;;;12.05;5.35;;;;;;;22.93;48.18;95349.50;5109811;27;20484;-81
2023/07/10 05:49:06;;;;;;;7.80;5.00;;;;;;;22.93;47.85;95360.13;5121409;27;20035;-76
2023/07/10 05:51:31;;;;;;;8.32;4.63;;;;;;;22.83;48.15;95343.72;5092095;28;20463;-83
2023/07/10 05:53:57;;;;;;;10.40;4.20;;;;;;;23.18;48.07;95344.66;5127666;27;20118;-83
2023/07/10 05:56:23;;;;;;;5.32;4.28;;;;;;;23.14;46.47;95340.75;5104945;27;20036;-82
2023/07/10 05:58:50;;;;;;;6.80;4.53;;;;;;;23.09;46.49;95343.94;5097885;27;20034;-79
2023/07/10 06:01:15;;;;;;;11.65;4.70;;;;;;;23.50;46.37;95350.38;5080043;27;20023;-83
2023/07/10 06:03:40;;;;;;;10.43;4.75;;;;;;;23.41;46.44;95353.16;5105474;27;20415;-74
2023/07/10 06:06:06;;;;;;;7.45;4.38;;;;;;;23.18;45.84;95353.41;5084408;27;20484;-78
2023/07/10 06:08:32;;;;;;;6.45;4.20;;;;;;;23.29;46.57;95351.22;5094196;28;20368;-83
2023/07/10 06:10:58;;;;;;;6.60;4.13;;;;;;;23.43;46.79;95345.03;5111225;27;20031;-84
2023/07/10 06:13:23;;;;;;;13.85;4.38;;;;;;;23.90;45.97;95348.78;5116812;27;20420;-84
2023/07/10 06:15:51;;;;;;;7.00;4.43;;;;;;;23.59;46.55;95357.16;5129304;27;20098;-84
2023/07/10 06:18:16;;;;;;;9.35;4.20;;;;;;;23.58;45.33;95350.22;5113404;27;20503;-83
2023/07/10 06:20:42;;;;;;;6.82;4.22;;;;;;;23.53;46.18;95350.78;5132973;27;20111;-83
2023/07/10 06:23:07;;;;;;;6.15;4.15;;;;;;;23.50;46.38;95353.84;5131851;27;20484;-83
2023/07/10 06:25:33;;;;;;;8.27;4.55;;;;;;;23.47;45.43;95351.56;5114414;27;20494;-82
2023/07/10 06:27:58;;;;;;;9.65;4.57;;;;;;;23.05;46.14;95352.50;5114072;27;20047;-83
2023/07/10 06:30:23;;;;;;;5.28;4.00;;;;;;;23.57;45.10;95349.41;5113025;27;20023;-84
2023/07/10 06:32:49;;;;;;;8.52;4.57;;;;;;;23.57;45.72;95345.94;5095680;27;20027;-83
2023/07/10 06:35:15;;;;;;;6.97;4.20;;;;;;;23.70;46.54;95350.50;5112555;27;20031;-82
2023/07/10 06:37:41;;;;;;;5.82;4.50;;;;;;;23.88;45.61;95350.84;5112234;27;20089;-83
2023/07/10 06:40:07;;;;;;;13.38;4.80;;;;;;;23.85;45.70;95360.00;5095419;27;20455;-82
2023/07/10 06:42:32;;;;;;;6.30;4.45;;;;;;;23.68;45.15;95342.75;5130600;27;20027;-83
2023/07/10 06:44:57;;;;;;;8.93;4.45;;;;;;;24.06;45.46;95361.72;5114259;27;20062;-83
2023/07/10 06:47:23;;;;;;;7.43;4.50;;;;;;;24.35;44.96;95356.31;5114735;28;20084;-83
2023/07/10 06:49:48;;;;;;;6.82;4.57;;;;;;;24.50;44.23;95363.13;5097189;27;20027;-83
2023/07/10 06:52:14;;;;;;;7.78;4.32;;;;;;;24.55;44.54;95359.91;5097446;27;20031;-82
2023/07/10 06:54:39;;;;;;;7.25;4.30;;;;;;;24.92;43.04;95345.22;5114001;27;20023;-83
2023/07/10 06:57:05;;;;;;;6.55;4.55;;;;;;;25.00;43.29;95362.00;5131341;27;20032;-83
2023/07/10 06:59:30;;;;;;;8.57;4.70;;;;;;;25.21;42.86;95361.81;5097215;27;20510;-81
2023/07/10 07:01:55;;;;;;;9.50;4.55;;;;;;;25.35;43.23;95355.50;5132671;27;20031;-82
2023/07/10 07:04:21;;;;;;;6.85;4.53;;;;;;;25.47;44.08;95352.22;5132379;27;20019;-82
2023/07/10 07:06:48;;;;;;;8.32;5.50;;;;;;;25.16;43.51;95348.34;5114148;27;20431;-82
2023/07/10 07:09:15;;;;;;;7.38;4.97;;;;;;;25.15;42.76;95357.34;5131301;27;20389;-81
2023/07/10 07:11:40;;;;;;;10.10;5.30;;;;;;;25.26;43.34;95354.06;5131215;27;20088;-82
2023/07/10 07:14:06;;;;;;;9.23;5.18;;;;;;;25.47;42.69;95347.72;5131047;27;20039;-82
2023/07/10 07:16:31;;;;;;;6.85;5.30;;;;;;;24.90;43.19;95341.13;5113945;28;20036;-82
2023/07/10 07:18:57;;;;;;;7.45;5.10;;;;;;;25.07;43.17;95346.88;5113996;28;20028;-82
2023/07/10 07:21:22;;;;;;;10.43;5.05;;;;;;;24.80;43.37;95344.22;5130968;27;20517;-82
2023/07/10 07:23:47;;;;;;;9.05;4.72;;;;;;;25.29;43.54;95342.19;5130821;28;20031;-82
2023/07/10 07:26:13;;;;;;;8.80;5.20;;;;;;;25.08;42.85;95333.38;5096849;28;20036;-82
2023/07/10 07:28:38;;;;;;;8.55;5.00;;;;;;;25.27;43.22;95349.56;5130988;27;20030;-82
2023/07/10 07:31:04;;;;;;;9.68;4.90;;;;;;;25.56;42.69;95341.13;5130640;28;20031;-82
2023/07/10 07:33:30;;;;;;;6.70;4.43;;;;;;;25.48;42.98;95301.47;5113837;28;20512;-80
2023/07/10 07:35:55;;;;;;;7.40;4.90;;;;;;;25.48;42.33;95329.91;5096833;28;20053;-81
2023/07/10 07:38:21;;;;;;;7.00;4.80;;;;;;;25.47;41.69;95322.97;5113636;28;20031;-80
2023/07/10 07:40:47;;;;;;;8.60;4.68;;;;;;;25.63;42.55;95333.13;5096581;28;20027;-81
2023/07/10 07:43:12;;;;;;;7.97;4.43;;;;;;;25.94;43.03;95329.03;5130863;28;20046;-80
2023/07/10 07:45:38;;;;;;;9.98;4.22;;;;;;;26.16;42.07;95325.03;5130985;28;20477;-80
2023/07/10 07:48:03;;;;;;;6.80;4.55;;;;;;;25.97;41.38;95328.59;5096654;28;20023;-81
2023/07/10 07:50:29;;;;;;;5.47;4.10;;;;;;;26.46;41.05;95329.78;5130661;28;20023;-80
2023/07/10 07:52:54;;;;;;;7.60;4.40;;;;;;;26.66;40.71;95311.88;5113674;28;20215;-81
2023/07/10 07:55:20;;;;;;;10.60;4.65;;;;;;;26.29;40.45;95310.81;5132092;27;20027;-81
2023/07/10 07:57:45;;;;;;;7.43;4.13;;;;;;;26.05;41.59;95317.72;5132339;27;20039;-82
2023/07/10 08:00:11;;;;;;;7.45;4.07;;;;;;;26.35;40.03;95320.63;5130594;28;20080;-83
2023/07/10 08:02:37;;;;;;;5.53;4.07;;;;;;;26.66;40.20;95303.91;5130898;28;20054;-83
2023/07/10 08:05:02;;;;;;;7.88;4.00;;;;;;;26.82;39.92;95315.84;5131978;27;20027;-83
2023/07/10 08:07:28;;;;;;;5.53;4.05;;;;;;;26.88;40.17;95300.84;5130698;28;20027;-82
2023/07/10 08:09:53;;;;;;;7.80;4.22;;;;;;;27.09;40.30;95303.16;5131701;27;20061;-82
2023/07/10 08:12:19;;;;;;;8.55;4.43;;;;;;;27.26;39.16;95314.09;5113652;28;20027;-82
2023/07/10 08:14:44;;;;;;;5.10;3.90;;;;;;;27.25;38.13;95312.47;5113593;28;20428;-81
2023/07/10 08:17:10;;;;;;;7.18;3.70;;;;;;;27.44;37.88;95299.97;5130773;28;20031;-82
2023/07/10 08:19:35;;;;;;;4.65;3.80;;;;;;;27.40;37.28;95304.13;5113354;28;20027;-80
2023/07/10 08:22:01;;;;;;;5.38;3.60;;;;;;;27.64;36.22;95305.13;5130818;28;20037;-82
2023/07/10 08:24:26;;;;;;;6.68;3.55;;;;;;;27.82;36.99;95293.66;5098010;27;20027;-81
2023/07/10 08:26:52;;;;;;;5.97;3.92;;;;;;;27.45;38.12;95296.28;5100128;27;20065;-81
2023/07/10 08:29:24;;;;;;;4.45;3.22;;;;;;;27.79;38.47;95308.25;5134247;27;20030;-81
2023/07/10 08:31:52;;;;;;;5.05;3.50;;;;;;;27.56;36.50;95303.56;5135624;27;20024;-80
2023/07/10 08:34:17;;;;;;;4.25;3.47;;;;;;;27.56;36.05;95286.75;5117208;27;20050;-81
2023/07/10 08:36:43;;;;;;;5.25;3.33;;;;;;;27.76;37.14;95302.53;5134014;27;20038;-81
2023/07/10 08:39:09;;;;;;;6.68;3.53;;;;;;;27.85;36.93;95303.88;5135045;27;20023;-81
2023/07/10 08:41:35;;;;;;;6.30;4.13;;;;;;;27.80;36.32;95293.06;5117152;27;20105;-80
2023/07/10 08:44:00;;;;;;;5.15;3.47;;;;;;;27.52;36.51;95293.53;5116890;27;20441;-80
2023/07/10 08:46:26;;;;;;;6.07;3.47;;;;;;;27.67;37.04;95298.53;5116642;27;20035;-81
2023/07/10 08:49:23;;;;;;;5.00;3.60;;;;;;;27.71;37.95;95302.38;5133647;27;20023;-81
2023/07/10 08:52:12;;;;;;;3.75;3.20;;;;;;;27.96;36.64;95302.34;5129171;27;20043;-81
2023/07/10 08:54:37;;;;;;;4.90;3.28;;;;;;;27.69;36.12;95288.44;5117581;27;20046;-80
2023/07/10 08:57:03;;;;;;;3.83;3.30;;;;;;;28.16;35.11;95302.09;5116436;27;20043;-80
2023/07/10 08:59:36;;;;;;;3.95;3.08;;;;;;;28.06;36.15;95300.78;5135260;27;20023;-79
2023/07/10 09:02:02;;;;;;;4.97;3.33;;;;;;;28.14;35.41;95290.81;5116443;27;20035;-81
2023/07/10 09:04:28;;;;;;;4.05;3.45;;;;;;;28.43;35.35;95299.91;5133636;27;20027;-79
2023/07/10 09:06:58;;;;;;;4.22;3.40;;;;;;;28.28;34.96;95274.41;5116285;27;20031;-80
2023/07/10 09:09:23;;;;;;;;;;;;;;;28.37;32.71;95290.91;5117111;27;20034;-80
2023/07/10 09:11:49;;;;;;;5.77;3.57;;;;;;;27.81;34.88;95300.06;5134826;27;20460;-80
2023/07/10 09:14:20;;;;;;;6.07;3.60;;;;;;;27.97;34.37;95288.78;5133541;27;20031;-81
2023/07/10 09:16:45;;;;;;;4.15;3.63;;;;;;;27.61;35.61;95258.38;5133456;27;20039;-82
2023/07/10 09:19:15;;;;;;;5.07;4.03;;;;;;;27.72;34.84;95279.97;5116686;27;20027;-80
2023/07/10 09:21:41;;;;;;;7.32;4.97;;;;;;;27.48;34.12;95282.50;5116060;27;20096;-76
2023/07/10 09:24:21;;;;;;;7.65;4.72;;;;;;;27.18;35.38;95280.53;5115556;27;20038;-76
2023/07/10 09:26:46;;;;;;;;;;;;;;;27.07;35.97;95283.88;5116963;27;20134;-79
2023/07/10 09:29:14;;;;;;;9.67;5.13;;;;;;;27.21;36.20;95281.94;5115493;27;19942;-78
2023/07/10 09:31:54;;;;;;;5.28;3.88;;;;;;;27.60;36.94;95272.72;5134333;27;20103;-78
2023/07/10 09:34:21;;;;;;;4.22;3.00;;;;;;;27.85;36.20;95280.69;5133050;27;20023;-78
2023/07/10 09:36:51;;;;;;;7.53;3.63;;;;;;;27.88;35.45;95282.09;5115962;27;20039;-78
2023/07/10 09:39:16;;;;;;;5.13;3.60;;;;;;;27.94;34.24;95278.53;5098894;27;20026;-78
2023/07/10 09:41:42;;;;;;;4.88;3.53;;;;;;;28.18;33.92;95267.97;5132598;27;20288;-78
2023/07/10 09:44:16;;;;;;;6.00;4.22;;;;;;;28.10;34.80;95278.97;5115762;27;20111;-77
2023/07/10 09:46:42;;;;;;;7.45;4.32;;;;;;;28.11;33.10;95277.91;5132820;27;20127;-78
2023/07/10 09:49:21;;;;;;;7.57;4.60;;;;;;;28.11;33.37;95264.56;5132839;27;20061;-78
2023/07/10 09:51:59;;;;;;;4.63;3.30;;;;;;;28.24;32.91;95267.06;5132865;27;20481;-78
2023/07/10 09:54:25;;;;;;;6.22;3.00;;;;;;;28.26;31.87;95260.44;5132461;27;20023;-77
2023/07/10 09:56:52;;;;;;;4.70;3.08;;;;;;;28.16;33.36;95262.03;5132540;27;20183;-78
2023/07/10 09:59:23;;;;;;;3.75;2.78;;;;;;;28.28;34.21;95246.88;5132608;27;20515;-78
2023/07/10 10:01:50;;;;;;;5.55;3.20;;;;;;;28.39;33.45;95251.44;5099008;27;20031;-78
2023/07/10 10:04:24;;;;;;;3.80;3.03;;;;;;;28.10;33.36;95231.72;5115371;27;20038;-77
2023/07/10 10:07:00;;;;;;;4.75;3.30;;;;;;;28.34;33.92;95251.31;5115042;27;20028;-78
2023/07/10 10:09:28;;;;;;;3.90;3.30;;;;;;;27.70;32.62;95258.06;5132319;27;20027;-78
2023/07/10 10:11:55;;;;;;;4.57;3.00;;;;;;;28.07;33.81;95257.00;5132369;27;20488;-78
2023/07/10 10:14:39;;;;;;;3.97;3.10;;;;;;;28.14;32.68;95245.41;5115195;27;20019;-78
2023/07/10 10:17:05;;;;;;;3.40;2.97;;;;;;;28.28;33.80;95242.34;5115419;27;20095;-77
2023/07/10 10:19:33;;;;;;;4.20;3.10;;;;;;;28.52;32.72;95234.41;5114993;27;20027;-78
2023/07/10 10:21:59;;;;;;;4.47;3.00;;;;;;;28.51;32.86;95230.13;5114906;27;20035;-78
2023/07/10 10:24:25;;;;;;;4.47;3.22;;;;;;;28.25;32.57;95225.94;5133274;27;20077;-78
2023/07/10 10:27:05;;;;;;;4.30;2.85;;;;;;;27.91;31.91;95232.78;5114822;27;20105;-77
2023/07/10 10:29:54;;;;;;;3.55;3.00;;;;;;;28.06;32.42;95233.22;5131943;27;20015;-77
2023/07/10 10:32:25;;;;;;;3.25;2.80;;;;;;;28.16;32.24;95222.78;5114793;27;20035;-77
2023/07/10 10:34:59;;;;;;;3.15;2.83;;;;;;;28.56;31.13;95221.44;5132895;27;20400;-79
2023/07/10 10:37:49;;;;;;;4.25;3.00;;;;;;;28.57;31.97;95217.72;5131067;27;20183;-78
2023/07/10 10:40:39;;;;;;;8.60;3.17;;;;;;;28.35;31.52;95212.88;5131623;27;20015;-78
2023/07/10 10:43:32;;;;;;;3.97;3.20;;;;;;;28.32;31.30;95209.84;5115962;27;20071;-77
2023/07/10 10:46:30;;;;;;;3.88;3.00;;;;;;;28.41;29.46;95203.94;5131546;27;20088;-78
2023/07/10 10:49:19;;;;;;;4.95;2.72;;;;;;;28.26;29.75;95211.56;5131657;27;20023;-77
2023/07/10 10:52:03;;;;;;;3.33;2.60;;;;;;;28.35;30.54;95214.72;5110814;27;20046;-77
2023/07/10 10:54:42;;;;;;;4.20;2.72;;;;;;;28.23;31.21;95204.00;5132905;27;20023;-78
2023/07/10 10:57:22;;;;;;;4.78;2.90;;;;;;;28.24;30.68;95179.75;5131312;27;20504;-78
2023/07/10 11:00:15;;;;;;;4.18;2.83;;;;;;;28.14;29.01;95200.03;5131208;27;20035;-78
2023/07/10 11:02:52;;;;;;;3.28;2.80;;;;;;;27.99;29.44;95205.78;5133062;27;20476;-77
2023/07/10 11:05:40;;;;;;;3.90;3.08;;;;;;;28.14;30.02;95208.03;5131185;27;20544;-78
2023/07/10 11:08:13;;;;;;;3.63;2.78;;;;;;;28.02;29.15;95195.44;5113949;27;20027;-78
2023/07/10 11:10:40;;;;;;;5.47;2.90;;;;;;;27.89;28.42;95195.66;5114257;28;20027;-78
2023/07/10 11:13:05;;;;;;;3.72;2.80;;;;;;;27.81;30.25;95201.31;5131295;27;20484;-78
2023/07/10 11:15:32;;;;;;;3.58;2.60;;;;;;;27.95;29.55;95197.41;5096861;28;20055;-77
2023/07/10 11:17:58;;;;;;;6.05;2.60;;;;;;;27.97;28.00;95195.34;5114071;28;20031;-77
2023/07/10 11:20:23;;;;;;;4.30;2.55;;;;;;;28.00;29.89;95189.53;5113627;28;20027;-78
2023/07/10 11:22:56;;;;;;;3.20;2.90;;;;;;;27.74;29.62;95173.84;5113961;28;20039;-78
2023/07/10 11:25:28;;;;;;;4.05;3.03;;;;;;;28.05;29.57;95189.69;5097031;28;20043;-78
2023/07/10 11:27:54;;;;;;;6.97;3.55;;;;;;;28.12;29.80;95188.78;5130873;27;20047;-78
2023/07/10 11:30:30;;;;;;;3.28;2.58;;;;;;;27.98;29.27;95190.81;5113885;28;20031;-78
2023/07/10 11:33:15;;;;;;;3.97;3.10;;;;;;;27.92;30.75;95183.72;5114128;28;20038;-78
2023/07/10 11:36:12;;;;;;;3.95;3.05;;;;;;;28.03;30.54;95186.41;5130813;28;20111;-78
2023/07/10 11:38:54;;;;;;;4.90;3.00;;;;;;;28.06;30.80;95174.47;5132022;27;20034;-78